Time;durP1;ratioP1;P1;durP2;ratioP2;P2;SDS_P1;SDS_P2;PMS_P1;PMS_P2;Temp;Humidity;BMP_temperature;BMP_pressure;BME280_temperature;BME280_humidity;BME280_pressure;Samples;Min_cycle;Max_cycle;Signal;HPM_P1;HPM_P2
2023/01/26 00:01:30;;;;;;;31.60;21.73;;;4.20;99.90;;;;;;4897016;29;20437;-73
2023/01/26 00:03:56;;;;;;;37.85;24.40;;;4.20;99.90;;;;;;4899623;29;20044;-73
2023/01/26 00:06:22;;;;;;;38.08;24.48;;;4.20;99.90;;;;;;4901429;29;20043;-74
2023/01/26 00:08:54;;;;;;;28.45;20.23;;;4.30;99.90;;;;;;4896435;29;20038;-73
2023/01/26 00:11:29;;;;;;;32.65;21.85;;;4.20;99.90;;;;;;4900320;29;20036;-73
2023/01/26 00:13:59;;;;;;;28.90;20.52;;;4.10;99.90;;;;;;4896853;29;20032;-73
2023/01/26 00:16:25;;;;;;;28.95;18.95;;;4.00;99.90;;;;;;4901527;29;20040;-73
2023/01/26 00:18:52;;;;;;;27.38;19.02;;;4.00;99.90;;;;;;4897177;29;20203;-72
2023/01/26 00:21:20;;;;;;;29.17;19.55;;;4.00;99.90;;;;;;4905457;29;20050;-72
2023/01/26 00:23:47;;;;;;;28.70;19.15;;;4.00;99.90;;;;;;4901477;29;20066;-72
2023/01/26 00:26:24;;;;;;;31.20;19.98;;;4.00;99.90;;;;;;4900161;29;20038;-72
2023/01/26 00:28:51;;;;;;;28.73;17.92;;;4.00;99.90;;;;;;4898234;29;20036;-72
2023/01/26 00:31:22;;;;;;;29.88;19.60;;;4.00;99.90;;;;;;4884572;29;20050;-71
2023/01/26 00:33:48;;;;;;;29.27;18.00;;;3.90;99.90;;;;;;4897302;29;20051;-74
2023/01/26 00:36:14;;;;;;;31.60;18.92;;;4.00;99.90;;;;;;4900209;29;20037;-73
2023/01/26 00:38:40;;;;;;;32.28;20.42;;;4.00;99.90;;;;;;4890757;29;20056;-73
2023/01/26 00:41:06;;;;;;;32.33;20.23;;;4.00;99.90;;;;;;4894112;29;20040;-72
2023/01/26 00:43:33;;;;;;;30.42;19.05;;;3.90;99.90;;;;;;4895117;29;20044;-72
2023/01/26 00:45:58;;;;;;;29.55;19.80;;;4.00;99.90;;;;;;4901730;29;20040;-73
2023/01/26 00:48:24;;;;;;;30.70;19.58;;;4.00;99.90;;;;;;4900594;29;20052;-74
2023/01/26 00:50:51;;;;;;;32.90;19.60;;;4.00;99.90;;;;;;4898324;29;20049;-73
2023/01/26 00:53:17;;;;;;;30.02;19.20;;;3.90;99.90;;;;;;4895464;29;20071;-72
2023/01/26 00:55:42;;;;;;;33.38;20.30;;;3.90;99.90;;;;;;4892533;29;20132;-72
2023/01/26 00:58:08;;;;;;;30.65;19.42;;;3.90;99.90;;;;;;4897186;29;20047;-72
2023/01/26 01:00:36;;;;;;;30.80;18.95;;;3.90;99.90;;;;;;4901658;29;20074;-71
2023/01/26 01:03:02;;;;;;;34.25;20.45;;;3.90;99.90;;;;;;4879715;29;20036;-71
2023/01/26 01:05:30;;;;;;;33.70;20.52;;;3.80;99.90;;;;;;4899628;29;20509;-72
2023/01/26 01:07:55;;;;;;;31.25;18.95;;;3.80;99.90;;;;;;4893488;29;20580;-71
2023/01/26 01:10:22;;;;;;;29.08;19.55;;;3.80;99.90;;;;;;4892852;29;20032;-70
2023/01/26 01:12:47;;;;;;;30.13;19.20;;;3.90;99.90;;;;;;4875046;29;20243;-73
2023/01/26 01:15:13;;;;;;;30.88;19.45;;;3.90;99.90;;;;;;4871546;29;20036;-72
2023/01/26 01:17:39;;;;;;;27.83;18.73;;;3.90;99.90;;;;;;4896247;29;20040;-72
2023/01/26 01:20:07;;;;;;;30.75;19.80;;;3.90;99.90;;;;;;4896984;29;20177;-72
2023/01/26 01:22:34;;;;;;;35.35;20.52;;;3.80;99.90;;;;;;4897058;29;20040;-72
2023/01/26 01:24:59;;;;;;;35.33;20.48;;;3.80;99.90;;;;;;4893575;29;20048;-72
2023/01/26 01:27:25;;;;;;;36.63;20.70;;;3.80;99.90;;;;;;4900566;29;20379;-71
2023/01/26 01:29:51;;;;;;;36.70;20.92;;;3.80;99.90;;;;;;4877394;29;20051;-72
2023/01/26 01:32:17;;;;;;;39.67;22.35;;;3.80;99.90;;;;;;4890356;29;20036;-72
2023/01/26 01:34:45;;;;;;;36.88;20.38;;;3.80;99.90;;;;;;4892092;29;20036;-73
2023/01/26 01:37:10;;;;;;;35.45;21.35;;;3.80;99.90;;;;;;4895482;29;20032;-73
2023/01/26 01:39:36;;;;;;;35.90;20.08;;;3.80;99.90;;;;;;4892065;29;20044;-72
2023/01/26 01:42:02;;;;;;;33.03;20.08;;;3.80;99.90;;;;;;4893853;29;20041;-73
2023/01/26 01:44:27;;;;;;;36.30;21.35;;;3.70;99.90;;;;;;4884405;29;20064;-73
2023/01/26 01:46:59;;;;;;;33.22;20.65;;;3.80;99.90;;;;;;4886729;29;20032;-71
2023/01/26 01:49:45;;;;;;;37.10;21.45;;;3.80;99.90;;;;;;4890443;29;22110;-72
2023/01/26 01:52:12;;;;;;;35.42;21.10;;;3.70;99.90;;;;;;4894080;29;20028;-74
2023/01/26 01:54:43;;;;;;;34.58;21.45;;;3.70;99.90;;;;;;4887147;29;20059;-74
2023/01/26 01:57:16;;;;;;;34.60;20.23;;;3.70;99.90;;;;;;4874561;29;20036;-74
2023/01/26 01:59:53;;;;;;;33.95;19.17;;;3.70;99.90;;;;;;4896859;29;20079;-74
2023/01/26 02:02:18;;;;;;;32.13;18.83;;;3.70;99.90;;;;;;4889424;29;20051;-74
2023/01/26 02:04:45;;;;;;;34.00;20.00;;;3.70;99.90;;;;;;4896748;29;20032;-73
2023/01/26 02:07:11;;;;;;;32.80;20.08;;;3.70;99.90;;;;;;4893179;29;20047;-73
2023/01/26 02:12:28;;;;;;;34.78;20.20;;;3.70;99.90;;;;;;4897732;29;20118;-75
2023/01/26 02:14:56;;;;;;;35.70;20.05;;;3.70;99.90;;;;;;4893428;29;20041;-75
2023/01/26 02:17:22;;;;;;;35.15;20.15;;;3.70;99.90;;;;;;4892489;29;22061;-75
2023/01/26 02:19:54;;;;;;;33.70;19.33;;;3.70;99.90;;;;;;4896066;29;20056;-75
2023/01/26 02:22:39;;;;;;;34.08;19.83;;;3.80;99.90;;;;;;4892418;29;20079;-75
2023/01/26 02:25:24;;;;;;;33.50;20.20;;;3.80;99.90;;;;;;4897262;29;20047;-75
2023/01/26 02:27:50;;;;;;;36.60;20.75;;;3.90;99.90;;;;;;4881035;29;20427;-75
2023/01/26 02:30:16;;;;;;;35.80;20.95;;;3.80;99.90;;;;;;4898121;29;20028;-75
2023/01/26 02:32:42;;;;;;;37.90;21.25;;;3.80;99.90;;;;;;4897186;29;20041;-75
2023/01/26 02:35:08;;;;;;;33.90;20.90;;;3.80;99.90;;;;;;4904294;29;20056;-75
2023/01/26 02:37:34;;;;;;;33.75;20.17;;;3.90;99.90;;;;;;4895494;29;20101;-75
2023/01/26 02:40:12;;;;;;;36.25;20.75;;;4.00;99.90;;;;;;4895969;29;20047;-75
2023/01/26 02:42:40;;;;;;;37.20;20.85;;;3.90;99.90;;;;;;4889252;29;20040;-76
2023/01/26 02:45:07;;;;;;;37.97;22.83;;;3.90;99.90;;;;;;4893989;29;20135;-76
2023/01/26 02:47:33;;;;;;;41.17;22.08;;;3.90;99.90;;;;;;4886695;29;20116;-75
2023/01/26 02:49:59;;;;;;;34.28;20.77;;;3.90;99.90;;;;;;4897462;29;20413;-73
2023/01/26 02:52:27;;;;;;;34.30;20.55;;;3.90;99.90;;;;;;4896658;29;20131;-73
2023/01/26 02:57:38;;;;;;;33.97;20.10;;;3.90;99.90;;;;;;4890141;29;20929;-73
2023/01/26 03:00:06;;;;;;;34.47;20.25;;;4.00;99.90;;;;;;4880090;29;20032;-73
2023/01/26 03:02:32;;;;;;;33.30;20.48;;;3.90;99.90;;;;;;4890524;29;20040;-73
2023/01/26 03:04:58;;;;;;;33.00;19.75;;;3.80;99.90;;;;;;4906869;29;20578;-73
2023/01/26 03:07:24;;;;;;;36.63;20.05;;;3.80;99.90;;;;;;4902270;29;20072;-73
2023/01/26 03:09:49;;;;;;;32.75;19.98;;;3.70;99.90;;;;;;4900008;29;20470;-73
2023/01/26 03:12:15;;;;;;;32.72;19.02;;;3.70;99.90;;;;;;4901981;29;20044;-72
2023/01/26 03:14:40;;;;;;;29.70;18.52;;;3.70;99.90;;;;;;4897826;29;20032;-74
2023/01/26 03:17:06;;;;;;;36.20;19.98;;;3.70;99.90;;;;;;4892954;29;20044;-73
2023/01/26 03:27:47;;;;;;;35.65;19.80;;;3.60;99.90;;;;;;4888617;29;20039;-73
2023/01/26 03:30:16;;;;;;;32.33;18.50;;;3.70;99.90;;;;;;4896011;29;20032;-73
2023/01/26 03:32:42;;;;;;;41.60;27.70;;;3.70;99.90;;;;;;4902081;29;20075;-73
2023/01/26 03:35:14;;;;;;;41.78;23.90;;;3.70;99.90;;;;;;4898660;29;20115;-73
2023/01/26 03:37:42;;;;;;;;;;;3.70;99.90;;;;;;4896206;29;20048;-74
2023/01/26 03:56:37;;;;;;;28.98;18.40;;;3.60;99.90;;;;;;4895454;29;20144;-75
2023/01/26 03:59:08;;;;;;;30.27;18.45;;;3.70;99.90;;;;;;4900947;29;20578;-73
2023/01/26 04:09:58;;;;;;;28.23;17.02;;;3.70;99.90;;;;;;4898326;29;20051;-75
2023/01/26 04:12:24;;;;;;;26.45;17.20;;;3.60;99.90;;;;;;4894650;29;20650;-75
2023/01/26 04:23:02;;;;;;;35.75;23.10;;;3.80;99.90;;;;;;4903093;29;20504;-75
2023/01/26 04:25:28;;;;;;;30.10;19.67;;;3.80;99.90;;;;;;4898953;29;20039;-73
2023/01/26 04:27:54;;;;;;;41.42;22.33;;;3.80;99.90;;;;;;4895547;29;20139;-73
2023/01/26 04:30:19;;;;;;;49.75;26.60;;;3.70;99.90;;;;;;4899698;29;20071;-73
2023/01/26 04:32:45;;;;;;;36.92;22.58;;;3.70;99.90;;;;;;4898881;29;20032;-73
2023/01/26 04:35:11;;;;;;;37.15;21.60;;;3.70;99.90;;;;;;4904908;29;20033;-73
2023/01/26 04:37:37;;;;;;;40.40;23.05;;;3.80;99.90;;;;;;4900027;29;20046;-74
2023/01/26 04:40:05;;;;;;;40.95;23.95;;;3.80;99.90;;;;;;4900340;29;20044;-73
2023/01/26 04:42:31;;;;;;;46.33;26.30;;;3.80;99.90;;;;;;4900042;29;20054;-75
2023/01/26 04:44:56;;;;;;;37.53;22.15;;;3.70;99.90;;;;;;4899745;29;20048;-75
2023/01/26 04:47:22;;;;;;;33.55;19.30;;;3.70;99.90;;;;;;4896831;29;20036;-75
2023/01/26 04:49:48;;;;;;;37.85;22.25;;;3.70;99.90;;;;;;4900370;29;20040;-75
2023/01/26 04:52:14;;;;;;;49.05;28.00;;;3.70;99.90;;;;;;4898922;29;20044;-75
2023/01/26 04:54:40;;;;;;;47.30;26.85;;;3.70;99.90;;;;;;4878293;29;21751;-75
2023/01/26 04:57:06;;;;;;;37.55;21.70;;;3.70;99.90;;;;;;4896308;29;20576;-75
2023/01/26 04:59:31;;;;;;;34.60;18.25;;;3.70;99.90;;;;;;4898387;29;20066;-74
2023/01/26 05:01:57;;;;;;;33.08;20.02;;;3.70;99.90;;;;;;4887791;29;20489;-75
2023/01/26 05:04:23;;;;;;;35.10;20.90;;;3.70;99.90;;;;;;4890022;29;20048;-75
2023/01/26 05:06:48;;;;;;;34.42;21.00;;;3.70;99.90;;;;;;4898701;29;20056;-75
2023/01/26 05:09:14;;;;;;;33.85;21.45;;;3.70;99.90;;;;;;4887273;29;20495;-75
2023/01/26 05:11:40;;;;;;;36.90;22.00;;;3.70;99.90;;;;;;4898124;29;20040;-75
2023/01/26 05:14:05;;;;;;;40.67;22.25;;;3.60;99.90;;;;;;4890282;29;20416;-74
2023/01/26 05:16:31;;;;;;;35.42;20.70;;;3.60;99.90;;;;;;4897508;29;20067;-76
2023/01/26 05:18:57;;;;;;;27.50;18.05;;;3.60;99.90;;;;;;4881563;29;20484;-75
2023/01/26 05:21:26;;;;;;;26.80;17.85;;;3.70;99.90;;;;;;4895926;29;20044;-74
2023/01/26 05:23:53;;;;;;;37.15;23.58;;;3.80;99.90;;;;;;4890959;29;20486;-74
2023/01/26 05:26:18;;;;;;;35.22;22.52;;;3.70;99.90;;;;;;4894905;29;20055;-74
2023/01/26 05:28:44;;;;;;;31.95;21.25;;;3.70;99.90;;;;;;4895762;29;20033;-75
2023/01/26 05:31:10;;;;;;;31.98;20.42;;;3.70;99.90;;;;;;4893285;29;20036;-74
2023/01/26 05:33:35;;;;;;;30.80;18.98;;;3.70;99.90;;;;;;4892122;29;21638;-74
2023/01/26 05:36:06;;;;;;;29.20;16.95;;;3.60;99.90;;;;;;4906319;29;20039;-73
2023/01/26 05:38:31;;;;;;;32.10;17.67;;;3.60;99.90;;;;;;4893722;29;20068;-74
2023/01/26 05:40:58;;;;;;;28.08;17.85;;;3.50;99.90;;;;;;4903306;29;20123;-73
2023/01/26 05:43:23;;;;;;;26.58;16.63;;;3.50;99.90;;;;;;4899344;29;20028;-74
2023/01/26 05:45:49;;;;;;;26.67;17.20;;;3.50;99.90;;;;;;4905564;29;20047;-75
2023/01/26 05:48:15;;;;;;;29.75;17.42;;;3.60;99.90;;;;;;4896457;29;20046;-74
2023/01/26 05:50:40;;;;;;;28.38;17.92;;;3.50;99.90;;;;;;4904358;29;20502;-74
2023/01/26 05:53:06;;;;;;;30.35;18.65;;;3.50;99.90;;;;;;4895135;29;20055;-74
2023/01/26 05:55:32;;;;;;;25.95;17.10;;;3.50;99.90;;;;;;4892743;29;20513;-75
2023/01/26 05:57:57;;;;;;;26.52;17.08;;;3.60;99.90;;;;;;4898251;29;20179;-73
2023/01/26 06:00:23;;;;;;;23.70;16.23;;;3.60;99.90;;;;;;4895254;29;20431;-78
2023/01/26 06:02:49;;;;;;;23.63;15.80;;;3.60;99.90;;;;;;4891438;29;21834;-72
2023/01/26 06:05:15;;;;;;;24.73;16.75;;;3.60;99.90;;;;;;4891599;29;20055;-74
2023/01/26 06:07:40;;;;;;;22.25;15.45;;;3.70;99.90;;;;;;4899750;29;20422;-73
2023/01/26 06:10:06;;;;;;;25.25;16.83;;;3.70;99.90;;;;;;4896686;29;20098;-74
2023/01/26 06:12:34;;;;;;;23.90;15.77;;;3.60;99.90;;;;;;4896815;29;20493;-72
2023/01/26 06:15:01;;;;;;;25.65;16.48;;;3.60;99.90;;;;;;4900258;29;20048;-73
2023/01/26 06:17:27;;;;;;;35.03;16.25;;;3.60;99.90;;;;;;4897529;29;20051;-73
2023/01/26 06:19:53;;;;;;;23.13;15.48;;;3.70;99.90;;;;;;4896423;29;20056;-73
2023/01/26 06:22:18;;;;;;;24.73;16.38;;;3.70;99.90;;;;;;4892196;29;20036;-74
2023/01/26 06:24:45;;;;;;;23.02;15.10;;;3.60;99.90;;;;;;4895673;29;20102;-72
2023/01/26 06:27:13;;;;;;;24.35;15.65;;;3.60;99.90;;;;;;4892142;29;20685;-73
2023/01/26 06:29:40;;;;;;;23.77;15.98;;;3.60;99.90;;;;;;4891455;29;20028;-71
2023/01/26 06:32:06;;;;;;;24.48;16.42;;;3.50;99.90;;;;;;4895584;29;20037;-73
2023/01/26 06:34:32;;;;;;;25.02;16.20;;;3.50;99.90;;;;;;4892249;29;20514;-77
2023/01/26 06:36:58;;;;;;;24.92;16.25;;;3.60;99.90;;;;;;4892750;29;20089;-77
2023/01/26 06:39:23;;;;;;;25.48;16.25;;;3.50;99.90;;;;;;4893053;29;20048;-75
2023/01/26 06:41:49;;;;;;;27.42;16.55;;;3.50;99.90;;;;;;4897283;29;20088;-76
2023/01/26 06:44:15;;;;;;;27.30;16.58;;;3.60;99.90;;;;;;4887496;29;20795;-73
2023/01/26 06:46:40;;;;;;;24.70;15.88;;;3.60;99.90;;;;;;4895679;29;20055;-75
2023/01/26 06:49:06;;;;;;;28.27;17.42;;;3.70;99.90;;;;;;4902516;29;20047;-72
2023/01/26 06:51:45;;;;;;;28.15;17.58;;;3.70;99.90;;;;;;4904353;29;20068;-73
2023/01/26 06:54:11;;;;;;;29.35;16.88;;;3.70;99.90;;;;;;4901913;29;20393;-75
2023/01/26 06:56:37;;;;;;;28.63;18.27;;;3.70;99.90;;;;;;4904144;29;20048;-75
2023/01/26 06:59:04;;;;;;;26.42;16.48;;;3.70;99.90;;;;;;4898786;29;20493;-72
2023/01/26 07:01:35;;;;;;;25.75;16.90;;;3.70;99.90;;;;;;4890967;29;20460;-73
2023/01/26 07:04:01;;;;;;;27.02;16.40;;;3.70;99.90;;;;;;4889725;29;20111;-73
2023/01/26 07:06:26;;;;;;;27.20;16.88;;;3.70;99.90;;;;;;4898981;29;20040;-71
2023/01/26 07:08:52;;;;;;;27.25;17.25;;;3.70;99.90;;;;;;4894591;29;20486;-74
2023/01/26 07:11:19;;;;;;;26.30;17.52;;;3.70;99.90;;;;;;4903800;29;20044;-74
2023/01/26 07:13:45;;;;;;;26.80;16.98;;;3.60;99.90;;;;;;4900334;29;20397;-74
2023/01/26 07:16:13;;;;;;;26.25;17.10;;;3.60;99.90;;;;;;4895004;29;20040;-74
2023/01/26 07:18:39;;;;;;;25.45;16.67;;;3.70;99.90;;;;;;4899546;29;20123;-74
2023/01/26 07:21:08;;;;;;;25.17;16.35;;;3.60;99.90;;;;;;4903298;29;20036;-73
2023/01/26 07:23:34;;;;;;;36.83;21.85;;;3.60;99.90;;;;;;4903157;29;20405;-74
2023/01/26 07:25:59;;;;;;;29.00;17.58;;;3.60;99.90;;;;;;4906994;29;20028;-74
2023/01/26 07:28:25;;;;;;;26.25;16.88;;;3.60;99.90;;;;;;4907934;29;20044;-74
2023/01/26 07:30:52;;;;;;;25.85;17.35;;;3.50;99.90;;;;;;4897476;29;20264;-74
2023/01/26 07:33:18;;;;;;;22.55;15.55;;;3.50;99.90;;;;;;4901441;29;20107;-73
2023/01/26 07:35:43;;;;;;;23.65;15.70;;;3.50;99.90;;;;;;4903044;29;20039;-71
2023/01/26 07:38:09;;;;;;;26.17;16.40;;;3.70;99.90;;;;;;4899750;29;20047;-71
2023/01/26 07:40:35;;;;;;;26.23;17.08;;;3.70;99.90;;;;;;4903607;29;20055;-71
2023/01/26 07:43:01;;;;;;;24.27;16.65;;;3.60;99.90;;;;;;4904614;29;20443;-71
2023/01/26 07:45:27;;;;;;;27.08;16.33;;;3.60;99.90;;;;;;4902145;29;20055;-70
2023/01/26 07:47:56;;;;;;;26.20;17.25;;;3.60;99.90;;;;;;4900067;29;20050;-71
2023/01/26 07:50:24;;;;;;;21.67;14.85;;;3.60;99.90;;;;;;4907436;29;20044;-71
2023/01/26 07:52:51;;;;;;;32.20;19.20;;;3.60;99.90;;;;;;4901996;29;20220;-71
2023/01/26 07:55:19;;;;;;;39.45;26.92;;;3.60;99.90;;;;;;4904479;29;20194;-71
2023/01/26 07:57:47;;;;;;;25.05;16.27;;;3.60;99.90;;;;;;4904502;29;20063;-71
2023/01/26 08:00:14;;;;;;;23.73;15.00;;;3.60;99.90;;;;;;4895802;29;20040;-71
2023/01/26 08:02:39;;;;;;;22.67;15.48;;;3.60;99.90;;;;;;4903152;29;20123;-71
2023/01/26 08:05:05;;;;;;;22.42;15.52;;;3.60;99.90;;;;;;4888412;29;20036;-71
2023/01/26 08:07:31;;;;;;;26.25;17.00;;;3.70;99.90;;;;;;4888004;29;20726;-71
2023/01/26 08:09:58;;;;;;;25.85;17.80;;;3.70;99.90;;;;;;4896959;29;20049;-71
2023/01/26 08:12:24;;;;;;;23.27;16.83;;;3.70;99.90;;;;;;4902121;29;20039;-73
2023/01/26 08:14:50;;;;;;;24.27;16.60;;;3.80;99.90;;;;;;4893356;29;20081;-73
2023/01/26 08:17:16;;;;;;;23.00;15.55;;;3.80;99.90;;;;;;4899810;29;20187;-73
2023/01/26 08:19:42;;;;;;;22.20;15.82;;;3.90;99.90;;;;;;4900462;29;20059;-72
2023/01/26 08:22:08;;;;;;;23.73;16.55;;;4.00;99.90;;;;;;4898657;29;20122;-73
2023/01/26 08:24:33;;;;;;;23.52;16.40;;;4.00;99.90;;;;;;4897895;29;20054;-73
2023/01/26 08:26:59;;;;;;;25.20;15.70;;;3.90;99.90;;;;;;4902144;29;20051;-74
2023/01/26 08:29:25;;;;;;;34.50;21.92;;;3.90;99.90;;;;;;4897811;29;20659;-73
2023/01/26 08:31:50;;;;;;;36.47;24.27;;;3.90;99.90;;;;;;4898361;29;20070;-73
2023/01/26 08:34:16;;;;;;;36.25;22.95;;;3.90;99.90;;;;;;4893643;29;20028;-73
2023/01/26 08:36:41;;;;;;;116.65;56.15;;;3.80;99.90;;;;;;4899434;29;20476;-73
2023/01/26 08:39:07;;;;;;;31.25;20.75;;;3.80;99.90;;;;;;4903010;29;20085;-73
2023/01/26 08:41:33;;;;;;;25.05;17.52;;;3.80;99.90;;;;;;4901870;29;20056;-74
2023/01/26 08:43:59;;;;;;;29.23;19.38;;;3.80;99.90;;;;;;4903060;29;20069;-74
2023/01/26 08:46:25;;;;;;;24.65;18.80;;;3.90;99.90;;;;;;4907013;29;20043;-73
2023/01/26 08:48:51;;;;;;;25.58;16.65;;;3.90;99.90;;;;;;4897641;29;20040;-74
2023/01/26 08:51:17;;;;;;;36.00;23.20;;;3.90;99.90;;;;;;4906458;29;20040;-74
2023/01/26 08:53:43;;;;;;;67.57;41.45;;;3.90;99.90;;;;;;4910102;29;20055;-73
2023/01/26 08:56:11;;;;;;;36.25;24.65;;;3.90;99.90;;;;;;4910634;29;20047;-73
2023/01/26 08:58:36;;;;;;;20.15;14.98;;;3.90;99.90;;;;;;4911196;29;20049;-73
2023/01/26 09:01:09;;;;;;;21.67;14.60;;;3.80;99.90;;;;;;4909540;29;20563;-73
2023/01/26 09:03:35;;;;;;;20.42;14.75;;;3.80;99.90;;;;;;4906508;29;20679;-74
2023/01/26 09:06:03;;;;;;;23.42;14.95;;;3.80;99.90;;;;;;4900641;29;20074;-74
2023/01/26 09:08:29;;;;;;;22.08;13.93;;;3.90;99.90;;;;;;4914552;29;20095;-74
2023/01/26 09:10:55;;;;;;;21.40;14.82;;;3.90;99.90;;;;;;4907550;29;20509;-75
2023/01/26 09:13:21;;;;;;;20.05;14.35;;;3.90;99.90;;;;;;4902931;29;20328;-73
2023/01/26 09:15:46;;;;;;;21.10;14.43;;;3.90;99.90;;;;;;4899295;29;20040;-74
2023/01/26 09:18:12;;;;;;;21.50;13.50;;;3.90;99.90;;;;;;4905391;29;20500;-74
2023/01/26 09:20:38;;;;;;;19.70;14.30;;;3.90;99.90;;;;;;4893739;29;20043;-74
2023/01/26 09:23:04;;;;;;;22.90;14.60;;;3.90;99.90;;;;;;4897797;29;20853;-74
2023/01/26 09:25:29;;;;;;;20.13;14.40;;;3.80;99.90;;;;;;4894130;29;20191;-74
2023/01/26 09:27:56;;;;;;;20.40;14.35;;;3.80;99.90;;;;;;4905571;29;20404;-70
2023/01/26 09:30:23;;;;;;;20.85;14.00;;;3.80;99.90;;;;;;4895544;29;20647;-70
2023/01/26 09:32:49;;;;;;;20.52;14.38;;;3.80;99.90;;;;;;4894387;29;20040;-70
2023/01/26 09:35:15;;;;;;;21.83;13.63;;;3.80;99.90;;;;;;4895357;29;20123;-70
2023/01/26 09:37:43;;;;;;;24.35;15.00;;;3.70;99.90;;;;;;4891352;29;20601;-71
2023/01/26 09:40:25;;;;;;;21.50;14.50;;;3.70;99.90;;;;;;4899968;29;20040;-71
2023/01/26 09:43:00;;;;;;;21.13;14.93;;;3.80;99.90;;;;;;4893724;29;20035;-70
2023/01/26 09:45:32;;;;;;;21.08;14.48;;;3.80;99.90;;;;;;4891954;29;20128;-70
2023/01/26 09:48:14;;;;;;;23.40;16.40;;;3.90;99.90;;;;;;4894449;29;20552;-75
2023/01/26 09:51:05;;;;;;;20.70;13.82;;;3.90;99.90;;;;;;4899126;29;20044;-75
2023/01/26 09:54:12;;;;;;;20.65;13.80;;;3.90;99.90;;;;;;4900754;29;20044;-74
2023/01/26 09:56:38;;;;;;;21.42;13.85;;;3.90;99.90;;;;;;4851590;29;21321;-74
2023/01/26 09:59:37;;;;;;;19.40;13.60;;;3.90;99.90;;;;;;4896117;29;20048;-74
2023/01/26 10:02:02;;;;;;;19.88;13.80;;;4.00;99.90;;;;;;4890438;29;20040;-74
2023/01/26 10:04:35;;;;;;;19.55;12.70;;;4.00;99.90;;;;;;4896251;29;20040;-75
2023/01/26 10:07:04;;;;;;;31.67;13.55;;;4.00;99.90;;;;;;4898994;29;20051;-73
2023/01/26 10:09:34;;;;;;;17.10;12.43;;;4.20;99.90;;;;;;4905421;29;20119;-74
2023/01/26 10:12:03;;;;;;;18.63;13.10;;;4.20;99.90;;;;;;4879732;29;20049;-74
2023/01/26 10:15:01;;;;;;;22.67;14.32;;;4.20;99.90;;;;;;4886391;29;20036;-74
2023/01/26 10:17:35;;;;;;;19.10;13.30;;;4.30;99.90;;;;;;4875164;29;20485;-74
2023/01/26 10:20:01;;;;;;;19.42;13.38;;;4.20;99.90;;;;;;4899960;29;20095;-74
2023/01/26 10:22:30;;;;;;;18.80;13.73;;;4.20;99.90;;;;;;4899582;29;20039;-74
2023/01/26 10:24:58;;;;;;;19.98;13.38;;;4.20;99.90;;;;;;4907037;29;20115;-74
2023/01/26 10:27:26;;;;;;;15.65;11.60;;;4.20;99.90;;;;;;4898562;29;20038;-73
2023/01/26 10:29:51;;;;;;;20.42;12.57;;;4.20;99.90;;;;;;4904737;29;20040;-74
2023/01/26 10:32:17;;;;;;;18.95;12.35;;;4.20;99.90;;;;;;4894503;29;20406;-74
2023/01/26 10:34:46;;;;;;;18.75;12.45;;;4.10;99.90;;;;;;4906233;29;20043;-75
2023/01/26 10:37:22;;;;;;;18.00;12.68;;;4.10;99.90;;;;;;4896324;29;20036;-74
2023/01/26 10:39:57;;;;;;;17.58;12.65;;;4.10;99.90;;;;;;4905921;29;20227;-75
2023/01/26 10:42:27;;;;;;;18.30;11.77;;;4.10;99.90;;;;;;4899446;29;20106;-74
2023/01/26 10:44:52;;;;;;;15.25;11.10;;;4.20;99.90;;;;;;4894725;29;20040;-74
2023/01/26 10:47:20;;;;;;;15.98;11.57;;;4.30;99.90;;;;;;4894831;29;20258;-73
2023/01/26 10:49:46;;;;;;;17.45;12.15;;;4.30;99.90;;;;;;4902108;29;20047;-74
2023/01/26 10:52:21;;;;;;;18.33;12.55;;;4.20;99.90;;;;;;4901091;29;20036;-73
2023/01/26 10:54:47;;;;;;;16.00;12.13;;;4.30;99.90;;;;;;4893841;29;20083;-73
2023/01/26 10:57:16;;;;;;;16.15;11.70;;;4.30;99.90;;;;;;4895033;29;20040;-73
2023/01/26 11:00:09;;;;;;;15.85;11.57;;;4.30;99.90;;;;;;4898239;29;20449;-73
2023/01/26 11:02:35;;;;;;;15.48;11.70;;;4.40;99.90;;;;;;4897294;29;20090;-73
2023/01/26 11:05:07;;;;;;;14.75;10.70;;;4.40;99.90;;;;;;4880201;29;20067;-73
2023/01/26 11:07:44;;;;;;;14.70;10.98;;;4.40;99.90;;;;;;4904340;29;20095;-74
2023/01/26 11:10:18;;;;;;;13.43;9.75;;;4.50;99.90;;;;;;4897572;29;20047;-75
2023/01/26 11:12:43;;;;;;;12.82;10.23;;;4.60;99.90;;;;;;4897945;29;20089;-73
2023/01/26 11:15:16;;;;;;;13.68;9.55;;;4.60;99.90;;;;;;4901601;29;20064;-74
2023/01/26 11:18:09;;;;;;;12.10;9.05;;;4.70;99.90;;;;;;4904667;29;20048;-73
2023/01/26 11:20:53;;;;;;;12.82;8.63;;;4.70;99.90;;;;;;4903384;29;20040;-73
2023/01/26 11:23:32;;;;;;;15.88;10.70;;;4.60;99.90;;;;;;4899671;29;20091;-73
2023/01/26 11:26:33;;;;;;;9.65;8.13;;;4.70;99.90;;;;;;4894539;29;20041;-74
2023/01/26 11:28:59;;;;;;;11.13;8.23;;;4.70;99.90;;;;;;4896888;29;20110;-74
2023/01/26 11:31:31;;;;;;;12.30;9.00;;;4.90;99.90;;;;;;4896304;29;20155;-73
2023/01/26 11:34:15;;;;;;;12.27;8.10;;;4.90;99.90;;;;;;4902640;29;20048;-74
2023/01/26 11:36:46;;;;;;;11.65;8.30;;;4.90;99.90;;;;;;4896337;29;20072;-74
2023/01/26 11:39:28;;;;;;;26.80;13.65;;;4.90;99.90;;;;;;4906357;29;20699;-74
2023/01/26 11:42:29;;;;;;;14.95;9.52;;;4.90;99.90;;;;;;4894811;29;20036;-74
2023/01/26 11:45:35;;;;;;;10.60;7.50;;;4.90;99.90;;;;;;4881853;29;20047;-74
2023/01/26 11:48:07;;;;;;;20.67;11.75;;;4.90;99.90;;;;;;4893773;29;20055;-73
2023/01/26 11:50:51;;;;;;;18.05;11.35;;;4.90;99.90;;;;;;4900456;29;20050;-74
2023/01/26 11:53:28;;;;;;;56.42;38.28;;;4.90;99.90;;;;;;4904486;29;20405;-74
2023/01/26 11:56:33;;;;;;;24.13;15.85;;;4.90;99.90;;;;;;4902851;29;20052;-73
2023/01/26 11:59:19;;;;;;;10.13;7.18;;;4.80;99.90;;;;;;4821990;29;20062;-73
2023/01/26 12:02:01;;;;;;;12.18;7.63;;;4.80;99.90;;;;;;4889959;29;20043;-70
2023/01/26 12:04:29;;;;;;;12.25;7.50;;;4.80;99.90;;;;;;4900592;29;22183;-70
2023/01/26 12:07:09;;;;;;;14.13;8.05;;;5.00;99.90;;;;;;4897557;29;20044;-71
2023/01/26 12:09:45;;;;;;;13.40;6.93;;;5.10;99.90;;;;;;4903451;29;20033;-70
2023/01/26 12:12:42;;;;;;;11.15;8.40;;;5.10;99.90;;;;;;4898232;29;20041;-70
2023/01/26 12:15:08;;;;;;;11.32;7.93;;;5.10;99.90;;;;;;4876060;29;20129;-71
2023/01/26 12:17:55;;;;;;;8.82;6.72;;;5.10;99.90;;;;;;4901296;29;20510;-71
2023/01/26 12:20:36;;;;;;;9.25;7.05;;;5.20;99.90;;;;;;4902649;29;20047;-70
2023/01/26 12:23:28;;;;;;;9.38;7.10;;;5.20;99.90;;;;;;4894354;29;20501;-70
2023/01/26 12:26:10;;;;;;;9.05;6.60;;;5.20;99.90;;;;;;4897215;29;20044;-72
2023/01/26 12:29:10;;;;;;;9.63;6.80;;;5.10;99.90;;;;;;4900400;29;20639;-70
2023/01/26 12:32:07;;;;;;;10.35;7.07;;;5.10;99.90;;;;;;4891471;29;20032;-71
2023/01/26 12:34:33;;;;;;;15.35;10.40;;;5.10;99.90;;;;;;4899996;29;20107;-70
2023/01/26 12:37:05;;;;;;;12.25;9.05;;;5.10;99.90;;;;;;4886262;29;20064;-74
2023/01/26 12:39:48;;;;;;;13.50;7.68;;;5.10;99.90;;;;;;4896561;29;20063;-70
2023/01/26 12:42:45;;;;;;;8.10;6.28;;;5.20;99.90;;;;;;4900325;29;20037;-71
2023/01/26 12:45:38;;;;;;;11.70;8.13;;;5.20;99.90;;;;;;4899621;29;20706;-71
2023/01/26 12:48:22;;;;;;;12.27;7.38;;;5.10;99.90;;;;;;4896374;29;20051;-71
2023/01/26 12:50:57;;;;;;;9.48;6.82;;;5.10;99.90;;;;;;4901633;29;20096;-71
2023/01/26 12:53:33;;;;;;;9.02;6.20;;;5.10;99.90;;;;;;4899940;29;20044;-71
2023/01/26 12:56:26;;;;;;;16.10;9.68;;;5.10;99.90;;;;;;4899585;29;20055;-71
2023/01/26 12:58:55;;;;;;;9.13;6.75;;;5.10;99.90;;;;;;4901251;29;20055;-75
2023/01/26 13:01:24;;;;;;;12.13;7.50;;;5.20;99.90;;;;;;4893597;29;20276;-74
2023/01/26 13:04:07;;;;;;;10.63;6.97;;;5.20;99.90;;;;;;4891132;29;20039;-74
2023/01/26 13:06:33;;;;;;;10.68;9.27;;;5.10;99.90;;;;;;4888176;29;20055;-74
2023/01/26 13:09:20;;;;;;;11.55;9.10;;;5.00;99.90;;;;;;4895853;29;20024;-75
2023/01/26 13:12:00;;;;;;;10.32;8.13;;;5.00;99.90;;;;;;4885255;29;20049;-75
2023/01/26 13:14:36;;;;;;;10.80;7.97;;;5.00;99.90;;;;;;4888838;29;20051;-74
2023/01/26 13:17:14;;;;;;;10.20;7.65;;;4.90;99.90;;;;;;4889198;29;20405;-74
2023/01/26 13:19:42;;;;;;;10.82;8.68;;;4.90;99.90;;;;;;4901735;29;20048;-73
2023/01/26 13:22:17;;;;;;;9.68;7.53;;;4.80;99.90;;;;;;4900525;29;20037;-74
2023/01/26 13:24:45;;;;;;;11.38;8.25;;;4.90;99.90;;;;;;4902117;29;20906;-74
2023/01/26 13:27:35;;;;;;;12.63;8.98;;;4.80;99.90;;;;;;4887339;29;20060;-74
2023/01/26 13:30:01;;;;;;;22.45;17.60;;;4.80;99.90;;;;;;4898374;29;20160;-74
2023/01/26 13:32:27;;;;;;;16.83;12.10;;;4.80;99.90;;;;;;4896582;29;20040;-74
2023/01/26 13:34:59;;;;;;;23.35;16.95;;;4.80;99.90;;;;;;4898851;29;21808;-74
2023/01/26 13:37:59;;;;;;;10.00;8.07;;;4.80;99.90;;;;;;4895489;29;20111;-74
2023/01/26 13:40:34;;;;;;;10.65;7.82;;;4.80;99.90;;;;;;4901186;29;20477;-76